KERI/ERI METAR and TAF weather

Enter ICAO airport designator
Station Type Date Time Source
KERI METAR 2021/07/28 02:51 UTC NOAA

KERI 280251Z 00000KT 10SM SCT120 22/18 A3002 RMK AO2 SLP160 T02170183 53008


Station Type Date Time Source
KERI Decoded METAR 2021/07/28 02:51 UTC NOAA

ERIE INTERNATIONAL AIRPORT, PA, United States (KERI) 42-05N 080-11W 222M
Jul 27, 2021 - 10:51 PM EDT / 2021.07.28 0251 UTC
Wind: Calm:0
Visibility: 10 mile(s):0
Sky conditions: partly cloudy
Temperature: 71.1 F (21.7 C)
Dew Point: 64.9 F (18.3 C)
Relative Humidity: 81%
Pressure (altimeter): 30.02 in. Hg (1016 hPa)
Pressure tendency: 0.02 inches (0.8 hPa) higher than three hours ago
ob: KERI 280251Z 00000KT 10SM SCT120 22/18 A3002 RMK AO2 SLP160 T02170183 53008
cycle: 3

Station Type Date Time Source
KERI TAF 2021/07/27 18:22 UTC NOAA

TAF KERI 271720Z 2718/2818 26012G20KT P6SM VCSH BKN110
FM280000 VRB04KT P6SM BKN070

Example: see airport list